sensor_id;sensor_type;location;lat;lon;timestamp;pressure;altitude;pressure_sealevel;temperature;humidity
77979;BME280;67169;50.268;8.694;2023-04-07T00:00:02;99681.94;;;5.62;92.51
77979;BME280;67169;50.268;8.694;2023-04-07T00:02:30;99678.34;;;5.63;92.30
77979;BME280;67169;50.268;8.694;2023-04-07T00:04:57;99683.69;;;5.63;92.21
77979;BME280;67169;50.268;8.694;2023-04-07T00:07:25;99675.72;;;5.62;92.37
77979;BME280;67169;50.268;8.694;2023-04-07T00:09:51;99677.47;;;5.63;92.42
77979;BME280;67169;50.268;8.694;2023-04-07T00:12:18;99675.72;;;5.62;92.22
77979;BME280;67169;50.268;8.694;2023-04-07T00:14:45;99667.72;;;5.60;92.60
77979;BME280;67169;50.268;8.694;2023-04-07T00:17:11;99673.06;;;5.60;92.63
77979;BME280;67169;50.268;8.694;2023-04-07T00:19:38;99664.25;;;5.58;92.49
77979;BME280;67169;50.268;8.694;2023-04-07T00:22:04;99670.38;;;5.62;92.33
77979;BME280;67169;50.268;8.694;2023-04-07T00:24:32;99666.00;;;5.59;92.59
77979;BME280;67169;50.268;8.694;2023-04-07T00:26:59;99663.28;;;5.61;92.76
77979;BME280;67169;50.268;8.694;2023-04-07T00:29:26;99652.69;;;5.56;92.96
77979;BME280;67169;50.268;8.694;2023-04-07T00:31:52;99657.13;;;5.57;93.01
77979;BME280;67169;50.268;8.694;2023-04-07T00:34:19;99630.75;;;5.42;93.21
77979;BME280;67169;50.268;8.694;2023-04-07T00:36:46;99646.50;;;5.56;93.20
77979;BME280;67169;50.268;8.694;2023-04-07T00:39:16;99642.84;;;5.61;93.24
77979;BME280;67169;50.268;8.694;2023-04-07T00:41:44;99639.31;;;5.59;93.56
77979;BME280;67169;50.268;8.694;2023-04-07T00:44:11;99640.13;;;5.64;93.31
77979;BME280;67169;50.268;8.694;2023-04-07T00:46:38;99631.38;;;5.56;93.38
77979;BME280;67169;50.268;8.694;2023-04-07T00:49:05;99619.91;;;5.51;93.23
77979;BME280;67169;50.268;8.694;2023-04-07T00:51:32;99629.50;;;5.60;93.31
77979;BME280;67169;50.268;8.694;2023-04-07T00:53:58;99625.91;;;5.62;93.29
77979;BME280;67169;50.268;8.694;2023-04-07T00:56:26;99630.31;;;5.63;93.29
77979;BME280;67169;50.268;8.694;2023-04-07T00:58:54;99617.91;;;5.62;93.18
77979;BME280;67169;50.268;8.694;2023-04-07T01:01:23;99617.91;;;5.62;93.39
77979;BME280;67169;50.268;8.694;2023-04-07T01:03:56;99619.72;;;5.60;93.63
77979;BME280;67169;50.268;8.694;2023-04-07T01:06:27;99610.94;;;5.55;93.71
77979;BME280;67169;50.268;8.694;2023-04-07T01:09:00;99617.97;;;5.59;93.62
77979;BME280;67169;50.268;8.694;2023-04-07T01:11:31;99610.88;;;5.58;93.89
77979;BME280;67169;50.268;8.694;2023-04-07T01:14:05;99606.41;;;5.59;93.79
77979;BME280;67169;50.268;8.694;2023-04-07T01:16:35;99600.34;;;5.52;93.49
77979;BME280;67169;50.268;8.694;2023-04-07T01:19:09;99610.13;;;5.52;93.65
77979;BME280;67169;50.268;8.694;2023-04-07T01:21:37;99604.78;;;5.52;93.87
77979;BME280;67169;50.268;8.694;2023-04-07T01:24:26;99589.72;;;5.49;94.02
77979;BME280;67169;50.268;8.694;2023-04-07T01:27:04;99590.63;;;5.48;94.08
77979;BME280;67169;50.268;8.694;2023-04-07T01:29:41;99590.63;;;5.48;93.96
77979;BME280;67169;50.268;8.694;2023-04-07T01:32:13;99593.31;;;5.46;94.30
77979;BME280;67169;50.268;8.694;2023-04-07T01:34:40;99582.72;;;5.43;94.24
77979;BME280;67169;50.268;8.694;2023-04-07T01:37:07;99582.75;;;5.42;94.26
77979;BME280;67169;50.268;8.694;2023-04-07T01:39:36;99585.47;;;5.40;94.46
77979;BME280;67169;50.268;8.694;2023-04-07T01:42:05;99579.22;;;5.40;94.46
77979;BME280;67169;50.268;8.694;2023-04-07T01:44:32;99583.75;;;5.36;94.64
77979;BME280;67169;50.268;8.694;2023-04-07T01:47:01;99573.94;;;5.38;94.67
77979;BME280;67169;50.268;8.694;2023-04-07T01:49:29;99571.31;;;5.35;94.50
77979;BME280;67169;50.268;8.694;2023-04-07T01:51:57;99576.66;;;5.37;94.71
77979;BME280;67169;50.268;8.694;2023-04-07T01:54:25;99578.41;;;5.36;94.74
77979;BME280;67169;50.268;8.694;2023-04-07T01:56:52;99569.53;;;5.36;94.81
77979;BME280;67169;50.268;8.694;2023-04-07T01:59:19;99561.66;;;5.30;94.97
77979;BME280;67169;50.268;8.694;2023-04-07T02:01:46;99570.47;;;5.35;94.81
77979;BME280;67169;50.268;8.694;2023-04-07T02:04:21;99575.72;;;5.38;94.99
77979;BME280;67169;50.268;8.694;2023-04-07T02:06:53;99568.66;;;5.37;95.05
77979;BME280;67169;50.268;8.694;2023-04-07T02:09:21;99565.06;;;5.38;94.93
77979;BME280;67169;50.268;8.694;2023-04-07T02:11:52;99569.47;;;5.39;95.03
77979;BME280;67169;50.268;8.694;2023-04-07T02:14:21;99559.72;;;5.38;95.10
77979;BME280;67169;50.268;8.694;2023-04-07T02:16:49;99551.78;;;5.35;95.07
77979;BME280;67169;50.268;8.694;2023-04-07T02:19:19;99564.25;;;5.34;94.67
77979;BME280;67169;50.268;8.694;2023-04-07T02:21:47;99542.28;;;5.21;94.73
77979;BME280;67169;50.268;8.694;2023-04-07T02:24:18;99560.66;;;5.35;94.86
77979;BME280;67169;50.268;8.694;2023-04-07T02:26:46;99561.53;;;5.36;94.88
77979;BME280;67169;50.268;8.694;2023-04-07T02:29:13;99560.59;;;5.38;94.81
77979;BME280;67169;50.268;8.694;2023-04-07T02:31:39;99555.31;;;5.37;94.91
77979;BME280;67169;50.268;8.694;2023-04-07T02:34:06;99558.84;;;5.37;94.59
77979;BME280;67169;50.268;8.694;2023-04-07T02:36:34;99563.31;;;5.37;94.37
77979;BME280;67169;50.268;8.694;2023-04-07T02:39:01;99558.81;;;5.39;94.42
77979;BME280;67169;50.268;8.694;2023-04-07T02:41:27;99559.63;;;5.44;94.30
77979;BME280;67169;50.268;8.694;2023-04-07T02:43:54;99561.41;;;5.42;94.09
77979;BME280;67169;50.268;8.694;2023-04-07T02:46:21;99533.34;;;5.22;94.08
77979;BME280;67169;50.268;8.694;2023-04-07T02:48:47;99558.84;;;5.37;94.19
77979;BME280;67169;50.268;8.694;2023-04-07T02:51:14;99549.00;;;5.39;93.93
77979;BME280;67169;50.268;8.694;2023-04-07T02:53:42;99495.59;;;5.00;94.01
77979;BME280;67169;50.268;8.694;2023-04-07T02:56:09;99552.75;;;5.31;94.15
77979;BME280;67169;50.268;8.694;2023-04-07T02:58:35;99557.13;;;5.33;94.30
77979;BME280;67169;50.268;8.694;2023-04-07T03:01:02;99558.09;;;5.31;94.08
77979;BME280;67169;50.268;8.694;2023-04-07T03:03:29;99553.63;;;5.31;94.27
77979;BME280;67169;50.268;8.694;2023-04-07T03:05:55;99552.78;;;5.29;94.22
77979;BME280;67169;50.268;8.694;2023-04-07T03:08:22;99539.44;;;5.29;94.10
77979;BME280;67169;50.268;8.694;2023-04-07T03:10:50;99543.03;;;5.28;94.31
77979;BME280;67169;50.268;8.694;2023-04-07T03:13:17;99551.97;;;5.26;94.37
77979;BME280;67169;50.268;8.694;2023-04-07T03:15:44;99538.63;;;5.26;94.33
77979;BME280;67169;50.268;8.694;2023-04-07T03:18:11;99540.41;;;5.27;94.54
77979;BME280;67169;50.268;8.694;2023-04-07T03:20:38;99538.63;;;5.26;94.50
77979;BME280;67169;50.268;8.694;2023-04-07T03:23:06;99536.81;;;5.28;94.54
77979;BME280;67169;50.268;8.694;2023-04-07T03:25:32;99535.97;;;5.26;94.34
77979;BME280;67169;50.268;8.694;2023-04-07T03:28:00;99530.63;;;5.27;94.36
77979;BME280;67169;50.268;8.694;2023-04-07T03:30:27;99532.31;;;5.30;94.31
77979;BME280;67169;50.268;8.694;2023-04-07T03:32:53;99534.16;;;5.28;94.48
77979;BME280;67169;50.268;8.694;2023-04-07T03:35:20;99529.75;;;5.27;94.51
77979;BME280;67169;50.268;8.694;2023-04-07T03:37:47;99527.97;;;5.26;94.85
77979;BME280;67169;50.268;8.694;2023-04-07T03:40:13;99527.97;;;5.27;94.74
77979;BME280;67169;50.268;8.694;2023-04-07T03:42:40;99528.88;;;5.24;94.84
77979;BME280;67169;50.268;8.694;2023-04-07T03:45:08;99530.69;;;5.24;94.84
77979;BME280;67169;50.268;8.694;2023-04-07T03:47:35;99514.00;;;5.14;94.70
77979;BME280;67169;50.268;8.694;2023-04-07T03:50:02;99527.97;;;5.26;94.89
77979;BME280;67169;50.268;8.694;2023-04-07T03:52:29;99526.16;;;5.28;94.78
77979;BME280;67169;50.268;8.694;2023-04-07T03:54:55;99526.22;;;5.24;94.79
77979;BME280;67169;50.268;8.694;2023-04-07T03:57:22;99531.56;;;5.24;94.88
77979;BME280;67169;50.268;8.694;2023-04-07T03:59:49;99522.63;;;5.26;94.91
77979;BME280;67169;50.268;8.694;2023-04-07T04:02:17;99527.09;;;5.27;94.93
77979;BME280;67169;50.268;8.694;2023-04-07T04:04:43;99530.63;;;5.27;95.07
77979;BME280;67169;50.268;8.694;2023-04-07T04:07:10;99526.19;;;5.26;94.88
77979;BME280;67169;50.268;8.694;2023-04-07T04:09:36;99525.31;;;5.26;94.92
77979;BME280;67169;50.268;8.694;2023-04-07T04:12:03;99523.56;;;5.24;95.30
77979;BME280;67169;50.268;8.694;2023-04-07T04:14:30;99528.78;;;5.29;95.28
77979;BME280;67169;50.268;8.694;2023-04-07T04:16:57;99523.44;;;5.31;95.15
77979;BME280;67169;50.268;8.694;2023-04-07T04:19:25;99522.63;;;5.27;95.14
77979;BME280;67169;50.268;8.694;2023-04-07T04:21:51;99523.44;;;5.29;95.34
77979;BME280;67169;50.268;8.694;2023-04-07T04:24:18;99520.78;;;5.29;95.05
77979;BME280;67169;50.268;8.694;2023-04-07T04:26:44;99525.25;;;5.29;95.06
77979;BME280;67169;50.268;8.694;2023-04-07T04:29:11;99535.00;;;5.30;95.13
77979;BME280;67169;50.268;8.694;2023-04-07T04:31:37;99527.03;;;5.28;94.91
77979;BME280;67169;50.268;8.694;2023-04-07T04:34:04;99535.94;;;5.27;94.99
77979;BME280;67169;50.268;8.694;2023-04-07T04:36:32;99530.56;;;5.30;95.11
77979;BME280;67169;50.268;8.694;2023-04-07T04:38:59;99526.19;;;5.26;94.97
77979;BME280;67169;50.268;8.694;2023-04-07T04:41:25;99526.09;;;5.31;94.75
77979;BME280;67169;50.268;8.694;2023-04-07T04:43:52;99531.38;;;5.32;94.99
77979;BME280;67169;50.268;8.694;2023-04-07T04:46:18;99538.47;;;5.33;94.59
77979;BME280;67169;50.268;8.694;2023-04-07T04:48:45;99542.03;;;5.34;94.89
77979;BME280;67169;50.268;8.694;2023-04-07T04:51:11;99531.44;;;5.31;94.57
77979;BME280;67169;50.268;8.694;2023-04-07T04:53:39;99535.81;;;5.33;94.50
77979;BME280;67169;50.268;8.694;2023-04-07T04:56:07;99538.50;;;5.32;94.68
77979;BME280;67169;50.268;8.694;2023-04-07T04:58:34;99527.97;;;5.26;94.86
77979;BME280;67169;50.268;8.694;2023-04-07T05:01:00;99543.91;;;5.29;95.14
77979;BME280;67169;50.268;8.694;2023-04-07T05:03:27;99546.63;;;5.26;95.08
77979;BME280;67169;50.268;8.694;2023-04-07T05:05:54;99543.13;;;5.23;95.24
77979;BME280;67169;50.268;8.694;2023-04-07T05:08:20;99543.06;;;5.27;95.44
77979;BME280;67169;50.268;8.694;2023-04-07T05:10:48;99501.69;;;5.07;95.43
77979;BME280;67169;50.268;8.694;2023-04-07T05:13:15;99540.41;;;5.27;95.27
77979;BME280;67169;50.268;8.694;2023-04-07T05:15:42;99539.59;;;5.23;95.34
77979;BME280;67169;50.268;8.694;2023-04-07T05:18:08;99542.28;;;5.21;95.45
77979;BME280;67169;50.268;8.694;2023-04-07T05:20:35;99536.06;;;5.21;95.72
77979;BME280;67169;50.268;8.694;2023-04-07T05:23:02;99535.16;;;5.22;95.87
77979;BME280;67169;50.268;8.694;2023-04-07T05:25:28;99537.75;;;5.25;95.79
77979;BME280;67169;50.268;8.694;2023-04-07T05:27:57;99537.75;;;5.25;95.67
77979;BME280;67169;50.268;8.694;2023-04-07T05:30:24;99537.69;;;5.28;95.67
77979;BME280;67169;50.268;8.694;2023-04-07T05:32:51;99523.66;;;5.18;95.63
77979;BME280;67169;50.268;8.694;2023-04-07T05:35:18;99502.59;;;5.06;95.75
77979;BME280;67169;50.268;8.694;2023-04-07T05:37:44;99527.22;;;5.19;95.95
77979;BME280;67169;50.268;8.694;2023-04-07T05:40:11;99531.44;;;5.31;95.87
77979;BME280;67169;50.268;8.694;2023-04-07T05:42:38;99537.66;;;5.30;95.74
77979;BME280;67169;50.268;8.694;2023-04-07T05:45:07;99538.63;;;5.27;95.80
77979;BME280;67169;50.268;8.694;2023-04-07T05:47:34;99528.94;;;5.21;95.65
77979;BME280;67169;50.268;8.694;2023-04-07T05:50:00;99539.44;;;5.29;95.66
77979;BME280;67169;50.268;8.694;2023-04-07T05:52:27;99543.91;;;5.30;95.79
77979;BME280;67169;50.268;8.694;2023-04-07T05:54:53;99542.09;;;5.31;95.56
77979;BME280;67169;50.268;8.694;2023-04-07T05:57:20;99537.63;;;5.31;95.65
77979;BME280;67169;50.268;8.694;2023-04-07T05:59:47;99538.50;;;5.32;95.81
77979;BME280;67169;50.268;8.694;2023-04-07T06:02:15;99544.78;;;5.31;95.69
77979;BME280;67169;50.268;8.694;2023-04-07T06:04:41;99539.38;;;5.34;95.70
77979;BME280;67169;50.268;8.694;2023-04-07T06:07:08;99540.31;;;5.30;95.64
77979;BME280;67169;50.268;8.694;2023-04-07T06:09:34;99531.50;;;5.26;95.85
77979;BME280;67169;50.268;8.694;2023-04-07T06:12:01;99538.47;;;5.33;95.86
77979;BME280;67169;50.268;8.694;2023-04-07T06:14:29;99535.81;;;5.33;96.07
77979;BME280;67169;50.268;8.694;2023-04-07T06:16:56;99543.84;;;5.32;95.83
77979;BME280;67169;50.268;8.694;2023-04-07T06:19:24;99535.78;;;5.35;95.98
77979;BME280;67169;50.268;8.694;2023-04-07T06:21:51;99541.13;;;5.35;95.88
77979;BME280;67169;50.268;8.694;2023-04-07T06:24:18;99544.66;;;5.35;95.97
77979;BME280;67169;50.268;8.694;2023-04-07T06:26:48;99546.34;;;5.39;96.01
77979;BME280;67169;50.268;8.694;2023-04-07T06:29:14;99544.66;;;5.37;95.93
77979;BME280;67169;50.268;8.694;2023-04-07T06:31:41;99543.72;;;5.38;96.17
77979;BME280;67169;50.268;8.694;2023-04-07T06:34:08;99549.06;;;5.38;95.96
77979;BME280;67169;50.268;8.694;2023-04-07T06:36:36;99538.41;;;5.36;95.92
77979;BME280;67169;50.268;8.694;2023-04-07T06:39:02;99548.13;;;5.40;95.88
77979;BME280;67169;50.268;8.694;2023-04-07T06:41:29;99543.72;;;5.38;95.86
77979;BME280;67169;50.268;8.694;2023-04-07T06:43:56;99556.16;;;5.39;96.01
77979;BME280;67169;50.268;8.694;2023-04-07T06:46:23;99554.28;;;5.44;96.00
77979;BME280;67169;50.268;8.694;2023-04-07T06:48:50;99549.88;;;5.41;96.08
77979;BME280;67169;50.268;8.694;2023-04-07T06:51:17;99556.03;;;5.45;95.77
77979;BME280;67169;50.268;8.694;2023-04-07T06:53:45;99556.03;;;5.45;95.75
77979;BME280;67169;50.268;8.694;2023-04-07T06:56:13;99535.72;;;5.38;95.75
77979;BME280;67169;50.268;8.694;2023-04-07T06:58:39;99554.28;;;5.44;95.66
77979;BME280;67169;50.268;8.694;2023-04-07T07:01:06;99548.78;;;5.50;95.45
77979;BME280;67169;50.268;8.694;2023-04-07T07:03:33;99552.25;;;5.55;95.60
77979;BME280;67169;50.268;8.694;2023-04-07T07:06:00;99546.84;;;5.58;95.53
77979;BME280;67169;50.268;8.694;2023-04-07T07:08:27;99550.03;;;5.76;95.44
77979;BME280;67169;50.268;8.694;2023-04-07T07:10:56;99557.25;;;5.70;94.97
77979;BME280;67169;50.268;8.694;2023-04-07T07:13:24;99554.66;;;5.67;95.27
77979;BME280;67169;50.268;8.694;2023-04-07T07:15:51;99558.16;;;5.69;95.31
77979;BME280;67169;50.268;8.694;2023-04-07T07:18:18;99558.09;;;5.72;95.10
77979;BME280;67169;50.268;8.694;2023-04-07T07:20:45;99555.44;;;5.71;95.18
77979;BME280;67169;50.268;8.694;2023-04-07T07:23:12;99558.94;;;5.75;95.23
77979;BME280;67169;50.268;8.694;2023-04-07T07:25:38;99536.06;;;5.64;95.11
77979;BME280;67169;50.268;8.694;2023-04-07T07:28:11;99545.69;;;5.71;95.09
77979;BME280;67169;50.268;8.694;2023-04-07T07:30:38;99558.22;;;5.68;95.03
77979;BME280;67169;50.268;8.694;2023-04-07T07:33:05;99561.69;;;5.71;94.96
77979;BME280;67169;50.268;8.694;2023-04-07T07:35:32;99563.56;;;5.68;95.04
77979;BME280;67169;50.268;8.694;2023-04-07T07:37:59;99564.28;;;5.75;94.77
77979;BME280;67169;50.268;8.694;2023-04-07T07:40:26;99565.91;;;5.82;94.99
77979;BME280;67169;50.268;8.694;2023-04-07T07:42:53;99569.66;;;5.73;94.80
77979;BME280;67169;50.268;8.694;2023-04-07T07:45:21;99565.94;;;5.80;94.90
77979;BME280;67169;50.268;8.694;2023-04-07T07:47:47;99576.72;;;5.76;94.53
77979;BME280;67169;50.268;8.694;2023-04-07T07:50:14;99556.31;;;5.73;94.49
77979;BME280;67169;50.268;8.694;2023-04-07T07:52:41;99576.50;;;5.85;94.53
77979;BME280;67169;50.268;8.694;2023-04-07T07:55:08;99577.25;;;5.91;94.72
77979;BME280;67169;50.268;8.694;2023-04-07T07:57:35;99570.00;;;6.00;94.74
77979;BME280;67169;50.268;8.694;2023-04-07T08:00:02;99579.00;;;5.96;93.99
77979;BME280;67169;50.268;8.694;2023-04-07T08:02:30;99562.19;;;5.89;94.11
77979;BME280;67169;50.268;8.694;2023-04-07T08:04:58;99579.81;;;5.99;93.99
77979;BME280;67169;50.268;8.694;2023-04-07T08:07:25;99587.88;;;5.96;93.97
77979;BME280;67169;50.268;8.694;2023-04-07T08:09:52;99583.28;;;6.03;93.98
77979;BME280;67169;50.268;8.694;2023-04-07T08:12:20;99590.22;;;6.10;93.90
77979;BME280;67169;50.268;8.694;2023-04-07T08:14:47;99589.44;;;6.05;93.84
77979;BME280;67169;50.268;8.694;2023-04-07T08:17:14;99588.50;;;6.07;93.91
77979;BME280;67169;50.268;8.694;2023-04-07T08:19:42;99591.97;;;6.11;93.91
77979;BME280;67169;50.268;8.694;2023-04-07T08:22:09;99596.50;;;6.07;93.38
77979;BME280;67169;50.268;8.694;2023-04-07T08:24:35;99586.88;;;6.00;93.32
77979;BME280;67169;50.268;8.694;2023-04-07T08:27:02;99599.25;;;6.04;93.66
77979;BME280;67169;50.268;8.694;2023-04-07T08:29:28;99599.25;;;6.04;93.83
77979;BME280;67169;50.268;8.694;2023-04-07T08:31:55;99600.09;;;6.06;93.79
77979;BME280;67169;50.268;8.694;2023-04-07T08:34:22;99600.03;;;6.09;93.55
77979;BME280;67169;50.268;8.694;2023-04-07T08:36:50;99602.78;;;6.06;93.73
77979;BME280;67169;50.268;8.694;2023-04-07T08:39:16;99600.88;;;6.11;93.96
77979;BME280;67169;50.268;8.694;2023-04-07T08:41:43;99603.47;;;6.14;93.89
77979;BME280;67169;50.268;8.694;2023-04-07T08:44:14;99605.13;;;6.20;93.65
77979;BME280;67169;50.268;8.694;2023-04-07T08:46:42;99606.03;;;6.19;93.46
77979;BME280;67169;50.268;8.694;2023-04-07T08:49:09;99612.81;;;6.34;93.76
77979;BME280;67169;50.268;8.694;2023-04-07T08:51:42;99610.03;;;6.38;93.53
77979;BME280;67169;50.268;8.694;2023-04-07T08:54:13;99618.97;;;6.37;93.24
77979;BME280;67169;50.268;8.694;2023-04-07T08:56:40;99617.06;;;6.42;93.64
77979;BME280;67169;50.268;8.694;2023-04-07T08:59:09;99615.50;;;6.34;93.24
77979;BME280;67169;50.268;8.694;2023-04-07T09:01:36;99603.88;;;6.35;93.68
77979;BME280;67169;50.268;8.694;2023-04-07T09:04:03;99612.75;;;6.37;93.37
77979;BME280;67169;50.268;8.694;2023-04-07T09:06:31;99617.13;;;6.39;93.19
77979;BME280;67169;50.268;8.694;2023-04-07T09:08:58;99621.53;;;6.42;92.95
77979;BME280;67169;50.268;8.694;2023-04-07T09:11:27;99624.13;;;6.45;93.20
77979;BME280;67169;50.268;8.694;2023-04-07T09:13:55;99613.56;;;6.40;93.67
77979;BME280;67169;50.268;8.694;2023-04-07T09:16:23;99617.00;;;6.46;93.54
77979;BME280;67169;50.268;8.694;2023-04-07T09:18:51;99627.66;;;6.46;93.44
77979;BME280;67169;50.268;8.694;2023-04-07T09:21:18;99626.94;;;6.39;93.71
77979;BME280;67169;50.268;8.694;2023-04-07T09:23:45;99633.16;;;6.39;93.46
77979;BME280;67169;50.268;8.694;2023-04-07T09:26:21;99629.69;;;6.36;93.91
77979;BME280;67169;50.268;8.694;2023-04-07T09:28:52;99632.06;;;6.48;94.33
77979;BME280;67169;50.268;8.694;2023-04-07T09:31:20;99635.44;;;6.56;93.60
77979;BME280;67169;50.268;8.694;2023-04-07T09:33:47;99638.00;;;6.61;93.61
77979;BME280;67169;50.268;8.694;2023-04-07T09:36:14;99627.53;;;6.52;93.38
77979;BME280;67169;50.268;8.694;2023-04-07T09:38:42;99610.00;;;6.40;93.23
77979;BME280;67169;50.268;8.694;2023-04-07T09:41:10;99630.81;;;6.63;93.68
77979;BME280;67169;50.268;8.694;2023-04-07T09:43:38;99630.00;;;6.59;93.49
77979;BME280;67169;50.268;8.694;2023-04-07T09:46:11;99641.56;;;6.61;93.40
77979;BME280;67169;50.268;8.694;2023-04-07T09:48:38;99637.81;;;6.69;93.23
77979;BME280;67169;50.268;8.694;2023-04-07T09:51:06;99635.88;;;6.75;93.23
77979;BME280;67169;50.268;8.694;2023-04-07T09:53:45;99636.56;;;6.83;92.92
77979;BME280;67169;50.268;8.694;2023-04-07T09:56:13;99639.22;;;6.85;92.52
77979;BME280;67169;50.268;8.694;2023-04-07T09:58:43;99626.00;;;6.77;92.61
77979;BME280;67169;50.268;8.694;2023-04-07T10:01:12;99625.72;;;6.88;92.31
77979;BME280;67169;50.268;8.694;2023-04-07T10:03:41;99631.19;;;7.19;92.71
77979;BME280;67169;50.268;8.694;2023-04-07T10:06:07;99634.78;;;7.18;92.18
77979;BME280;67169;50.268;8.694;2023-04-07T10:08:35;99636.13;;;7.34;92.30
77979;BME280;67169;50.268;8.694;2023-04-07T10:11:03;99640.53;;;7.35;91.31
77979;BME280;67169;50.268;8.694;2023-04-07T10:13:32;99640.16;;;7.49;91.35
77979;BME280;67169;50.268;8.694;2023-04-07T10:15:59;99640.16;;;7.49;90.47
77979;BME280;67169;50.268;8.694;2023-04-07T10:18:30;99644.78;;;7.44;89.65
77979;BME280;67169;50.268;8.694;2023-04-07T10:20:59;99648.47;;;7.40;90.35
77979;BME280;67169;50.268;8.694;2023-04-07T10:23:33;99642.03;;;7.47;90.79
77979;BME280;67169;50.268;8.694;2023-04-07T10:26:04;99646.38;;;7.51;90.39
77979;BME280;67169;50.268;8.694;2023-04-07T10:28:33;99643.53;;;7.57;90.82
77979;BME280;67169;50.268;8.694;2023-04-07T10:31:03;99646.22;;;7.56;89.88
77979;BME280;67169;50.268;8.694;2023-04-07T10:33:46;99650.88;;;7.49;90.29
77979;BME280;67169;50.268;8.694;2023-04-07T10:36:13;99649.22;;;7.45;90.50
77979;BME280;67169;50.268;8.694;2023-04-07T10:38:40;99648.63;;;7.34;90.03
77979;BME280;67169;50.268;8.694;2023-04-07T10:41:32;99661.78;;;7.42;90.40
77979;BME280;67169;50.268;8.694;2023-04-07T10:44:00;99667.94;;;7.45;90.93
77979;BME280;67169;50.268;8.694;2023-04-07T10:47:01;99657.06;;;7.51;90.97
77979;BME280;67169;50.268;8.694;2023-04-07T10:49:29;99664.16;;;7.54;89.92
77979;BME280;67169;50.268;8.694;2023-04-07T10:54:41;99662.22;;;7.25;90.17
77979;BME280;67169;50.268;8.694;2023-04-07T10:57:12;99661.84;;;7.40;90.17
77979;BME280;67169;50.268;8.694;2023-04-07T10:59:41;99672.19;;;7.54;90.36
77979;BME280;67169;50.268;8.694;2023-04-07T11:02:29;99665.69;;;7.63;90.68
77979;BME280;67169;50.268;8.694;2023-04-07T11:04:58;99675.91;;;7.79;90.77
77979;BME280;67169;50.268;8.694;2023-04-07T11:07:43;99667.72;;;7.85;90.19
77979;BME280;67169;50.268;8.694;2023-04-07T11:10:10;99676.63;;;7.86;90.17
77979;BME280;67169;50.268;8.694;2023-04-07T11:12:37;99673.09;;;7.84;89.76
77979;BME280;67169;50.268;8.694;2023-04-07T11:15:16;99676.13;;;7.72;89.67
77979;BME280;67169;50.268;8.694;2023-04-07T11:17:42;99675.97;;;7.78;90.16
77979;BME280;67169;50.268;8.694;2023-04-07T11:20:10;99673.06;;;7.85;90.22
77979;BME280;67169;50.268;8.694;2023-04-07T11:22:37;99680.94;;;7.92;90.75
77979;BME280;67169;50.268;8.694;2023-04-07T11:25:19;99677.81;;;7.76;89.89
77979;BME280;67169;50.268;8.694;2023-04-07T11:27:46;99679.53;;;7.78;89.84
77979;BME280;67169;50.268;8.694;2023-04-07T11:30:14;99687.75;;;7.71;89.51
77979;BME280;67169;50.268;8.694;2023-04-07T11:32:47;99684.91;;;7.77;89.20
77979;BME280;67169;50.268;8.694;2023-04-07T11:35:15;99685.75;;;7.79;88.57
77979;BME280;67169;50.268;8.694;2023-04-07T11:37:42;99685.34;;;7.93;89.16
77979;BME280;67169;50.268;8.694;2023-04-07T11:40:09;99687.16;;;7.92;89.35
77979;BME280;67169;50.268;8.694;2023-04-07T11:42:38;99690.88;;;7.87;88.74
77979;BME280;67169;50.268;8.694;2023-04-07T11:45:15;99699.63;;;7.93;90.35
77979;BME280;67169;50.268;8.694;2023-04-07T11:47:42;99690.41;;;8.03;88.40
77979;BME280;67169;50.268;8.694;2023-04-07T11:50:09;99691.53;;;8.26;89.07
77979;BME280;67169;50.268;8.694;2023-04-07T11:52:44;99688.19;;;8.49;87.53
77979;BME280;67169;50.268;8.694;2023-04-07T11:55:17;99690.25;;;8.69;86.21
77979;BME280;67169;50.268;8.694;2023-04-07T11:57:46;99692.63;;;9.06;87.79
77979;BME280;67169;50.268;8.694;2023-04-07T12:00:13;99688.09;;;8.80;84.29
77979;BME280;67169;50.268;8.694;2023-04-07T12:02:40;99695.78;;;8.91;84.49
77979;BME280;67169;50.268;8.694;2023-04-07T12:05:07;99696.47;;;8.97;83.29
77979;BME280;67169;50.268;8.694;2023-04-07T12:07:35;99690.28;;;8.95;83.44
77979;BME280;67169;50.268;8.694;2023-04-07T12:12:56;99591.97;;;8.68;82.88
77979;BME280;67169;50.268;8.694;2023-04-07T12:15:23;99601.44;;;9.04;84.59
77979;BME280;67169;50.268;8.694;2023-04-07T12:17:50;99697.16;;;9.57;85.01
77979;BME280;67169;50.268;8.694;2023-04-07T12:20:16;99706.28;;;9.25;84.83
77979;BME280;67169;50.268;8.694;2023-04-07T12:22:43;99708.81;;;9.03;85.45
77979;BME280;67169;50.268;8.694;2023-04-07T12:25:10;99705.97;;;8.81;86.54
77979;BME280;67169;50.268;8.694;2023-04-07T12:27:36;99702.38;;;8.80;86.33
77979;BME280;67169;50.268;8.694;2023-04-07T12:30:05;99706.06;;;8.78;86.19
77979;BME280;67169;50.268;8.694;2023-04-07T12:32:32;99704.59;;;8.68;86.96
77979;BME280;67169;50.268;8.694;2023-04-07T12:35:00;99697.94;;;8.79;86.59
77979;BME280;67169;50.268;8.694;2023-04-07T12:37:26;99703.22;;;8.83;86.17
77979;BME280;67169;50.268;8.694;2023-04-07T12:39:53;99705.03;;;8.82;86.36
77979;BME280;67169;50.268;8.694;2023-04-07T12:42:19;99705.84;;;8.84;85.98
77979;BME280;67169;50.268;8.694;2023-04-07T12:44:46;99697.34;;;8.70;84.42
77979;BME280;67169;50.268;8.694;2023-04-07T12:47:14;99696.88;;;8.85;87.07
77979;BME280;67169;50.268;8.694;2023-04-07T12:49:41;99707.69;;;9.10;86.31
77979;BME280;67169;50.268;8.694;2023-04-07T12:52:08;99666.00;;;9.00;85.67
77979;BME280;67169;50.268;8.694;2023-04-07T12:54:34;99713.63;;;9.20;84.64
77979;BME280;67169;50.268;8.694;2023-04-07T12:57:01;99715.34;;;9.22;82.66
77979;BME280;67169;50.268;8.694;2023-04-07T12:59:28;99716.19;;;9.49;84.73
77979;BME280;67169;50.268;8.694;2023-04-07T13:01:55;99713.25;;;9.57;83.63
77979;BME280;67169;50.268;8.694;2023-04-07T13:04:23;99716.47;;;9.67;82.06
77979;BME280;67169;50.268;8.694;2023-04-07T13:06:51;99707.00;;;9.82;83.95
77979;BME280;67169;50.268;8.694;2023-04-07T13:09:18;99702.13;;;9.93;81.30
77979;BME280;67169;50.268;8.694;2023-04-07T13:11:44;99713.16;;;9.85;82.81
77979;BME280;67169;50.268;8.694;2023-04-07T13:14:11;99708.38;;;9.93;81.79
77979;BME280;67169;50.268;8.694;2023-04-07T13:16:37;99704.03;;;9.89;81.63
77979;BME280;67169;50.268;8.694;2023-04-07T13:19:04;99711.59;;;10.03;83.72